Terminal Aerodrome Forecast
Issued by NWS

Home | Current Version | Previous Version | Text Only | Print | Product List | Glossary On
Versions: 1 2 3 4 5 6 7 8 9 10 11 12 13 14 15 16 17 18 19 20 21 22 23 24 25 26
000
FTUS46 KSEW 242300
TAFSEA
TAF
KSEA 242322Z 2500/2606 19010G18KT P6SM FEW030 SCT100 BKN250
      TEMPO 2500/2502 -SHRA BKN030 BKN100
     FM250400 17008KT P6SM SCT035 BKN050
     FM251900 23005KT P6SM SCT050 BKN100
     FM252300 29006KT P6SM SCT050 SCT100=

USA.gov is the U.S. government's official web portal to all federal, state and local government web resources and services.